createdAt,value
2019-01-16T00:00:16.747Z,7.60
2019-01-16T00:03:15.846Z,7.60
2019-01-16T00:06:07.372Z,7.60
2019-01-16T00:08:59.122Z,7.60
2019-01-16T00:11:55.268Z,7.60
2019-01-16T00:14:46.035Z,7.60
2019-01-16T00:17:49.063Z,7.60
2019-01-16T00:20:42.577Z,7.60
2019-01-16T00:23:38.145Z,7.60
2019-01-16T00:26:27.109Z,7.60
2019-01-16T00:29:35.055Z,7.60
2019-01-16T00:32:25.743Z,7.60
2019-01-16T00:35:15.693Z,7.60
2019-01-16T00:38:04.673Z,7.60
2019-01-16T00:41:04.434Z,7.60
2019-01-16T00:44:06.640Z,7.50
2019-01-16T00:47:03.326Z,7.50
2019-01-16T00:49:55.677Z,7.50
2019-01-16T00:53:01.879Z,7.60
2019-01-16T00:55:54.751Z,7.50
2019-01-16T00:58:47.986Z,7.50
2019-01-16T01:01:38.432Z,7.50
2019-01-16T01:04:44.933Z,7.40
2019-01-16T01:07:44.073Z,7.40
2019-01-16T01:10:39.882Z,7.40
2019-01-16T01:13:33.324Z,7.40
2019-01-16T01:16:23.547Z,7.40
2019-01-16T01:19:16.773Z,7.50
2019-01-16T01:22:07.552Z,7.50
2019-01-16T01:25:12.916Z,7.50
2019-01-16T01:28:21.138Z,7.50
2019-01-16T01:31:20.421Z,7.50
2019-01-16T01:34:21.495Z,7.50
2019-01-16T01:37:12.370Z,7.50
2019-01-16T01:40:05.702Z,7.50
2019-01-16T01:43:07.881Z,7.50
2019-01-16T01:46:04.994Z,7.50
2019-01-16T01:48:58.190Z,7.50
2019-01-16T01:51:48.528Z,7.50
2019-01-16T01:54:38.559Z,7.50
2019-01-16T01:57:31.595Z,7.50
2019-01-16T02:00:37.844Z,7.50
2019-01-16T02:03:26.510Z,7.40
2019-01-16T02:06:19.428Z,7.40
2019-01-16T02:09:25.335Z,7.40
2019-01-16T02:12:31.803Z,7.40
2019-01-16T02:15:24.701Z,7.40
2019-01-16T02:18:20.615Z,7.40
2019-01-16T02:21:17.214Z,7.40
2019-01-16T02:24:05.632Z,7.40
2019-01-16T02:27:12.500Z,7.40
2019-01-16T02:30:17.425Z,7.40
2019-01-16T02:33:19.942Z,7.40
2019-01-16T02:36:25.827Z,7.40
2019-01-16T02:39:14.225Z,7.40
2019-01-16T02:42:21.527Z,7.40
2019-01-16T02:45:27.831Z,7.40
2019-01-16T02:48:18.195Z,7.40
2019-01-16T02:51:24.226Z,7.40
2019-01-16T02:54:20.258Z,7.40
2019-01-16T02:57:13.711Z,7.40
2019-01-16T03:00:09.459Z,7.40
2019-01-16T03:03:09.096Z,7.40
2019-01-16T03:06:01.990Z,7.40
2019-01-16T03:08:55.527Z,7.40
2019-01-16T03:12:02.497Z,7.40
2019-01-16T03:14:52.951Z,7.40
2019-01-16T03:17:45.591Z,7.40
2019-01-16T03:20:36.195Z,7.40
2019-01-16T03:23:29.650Z,7.40
2019-01-16T03:26:28.778Z,7.40
2019-01-16T03:29:19.321Z,7.40
2019-01-16T03:32:09.982Z,7.30
2019-01-16T03:35:00.186Z,7.40
2019-01-16T03:37:52.892Z,7.30
2019-01-16T03:40:55.433Z,7.30
2019-01-16T03:43:48.432Z,7.30
2019-01-16T03:46:44.165Z,7.30
2019-01-16T03:49:32.581Z,7.30
2019-01-16T03:52:23.011Z,7.30
2019-01-16T03:55:13.041Z,7.30
2019-01-16T03:58:12.527Z,7.30
2019-01-16T04:01:18.891Z,7.30
2019-01-16T04:04:09.188Z,7.30
2019-01-16T04:07:11.249Z,7.30
2019-01-16T04:10:10.501Z,7.40
2019-01-16T04:13:12.496Z,7.40
2019-01-16T04:16:03.358Z,7.40
2019-01-16T04:18:54.279Z,7.40
2019-01-16T04:21:53.416Z,7.40
2019-01-16T04:24:44.242Z,7.40
2019-01-16T04:27:34.158Z,7.40
2019-01-16T04:30:25.432Z,7.40
2019-01-16T04:33:18.901Z,7.40
2019-01-16T04:36:09.534Z,7.40
2019-01-16T04:39:00.096Z,7.40
2019-01-16T04:41:50.812Z,7.40
2019-01-16T04:44:44.008Z,7.40
2019-01-16T04:47:40.443Z,7.50
2019-01-16T04:50:31.021Z,7.40
2019-01-16T04:53:21.531Z,7.40
2019-01-16T04:56:11.688Z,7.40
2019-01-16T04:59:10.912Z,7.40
2019-01-16T05:02:13.135Z,7.30
2019-01-16T05:05:06.115Z,7.30
2019-01-16T05:08:05.454Z,7.30
2019-01-16T05:10:55.355Z,7.30
2019-01-16T05:13:51.794Z,7.30
2019-01-16T05:16:44.899Z,7.30
2019-01-16T05:19:38.675Z,7.30
2019-01-16T05:22:44.036Z,7.30
2019-01-16T05:25:40.483Z,7.30
2019-01-16T05:28:33.288Z,7.30
2019-01-16T05:31:41.415Z,7.30
2019-01-16T05:34:29.928Z,7.20
2019-01-16T05:37:37.793Z,7.30
2019-01-16T05:40:42.891Z,7.30
2019-01-16T05:43:33.109Z,7.30
2019-01-16T05:46:38.424Z,7.30
2019-01-16T05:49:31.750Z,7.30
2019-01-16T05:52:22.469Z,7.30
2019-01-16T05:55:24.728Z,7.40
2019-01-16T05:58:15.564Z,7.30
2019-01-16T06:01:08.180Z,7.30
2019-01-16T06:04:08.759Z,7.30
2019-01-16T06:07:14.936Z,7.30
2019-01-16T06:10:07.289Z,7.30
2019-01-16T06:13:12.421Z,7.40
2019-01-16T06:16:00.972Z,7.40
2019-01-16T06:18:51.339Z,7.40
2019-01-16T06:21:50.034Z,7.40
2019-01-16T06:24:46.195Z,7.40
2019-01-16T06:28:01.135Z,7.40
2019-01-16T06:30:51.666Z,7.40
2019-01-16T06:34:00.013Z,7.40
2019-01-16T06:36:50.801Z,7.40
2019-01-16T06:39:43.501Z,7.40
2019-01-16T06:42:43.036Z,7.40
2019-01-16T06:45:35.825Z,7.40
2019-01-16T06:48:25.799Z,7.40
2019-01-16T06:51:19.016Z,7.40
2019-01-16T06:54:09.355Z,7.40
2019-01-16T06:57:00.073Z,7.40
2019-01-16T06:59:56.023Z,7.40
2019-01-16T07:02:46.240Z,7.40
2019-01-16T07:05:43.103Z,7.40
2019-01-16T07:08:36.566Z,7.50
2019-01-16T07:11:26.695Z,7.50
2019-01-16T07:14:19.489Z,7.60
2019-01-16T07:17:07.924Z,7.60
2019-01-16T07:19:58.201Z,7.60
2019-01-16T07:22:48.277Z,7.60
2019-01-16T07:25:48.700Z,7.60
2019-01-16T07:28:51.095Z,7.60
2019-01-16T07:31:53.389Z,7.60
2019-01-16T07:34:50.026Z,7.50
2019-01-16T07:37:41.654Z,7.50
2019-01-16T07:40:34.677Z,7.50
2019-01-16T07:43:27.480Z,7.50
2019-01-16T07:46:17.717Z,7.50
2019-01-16T07:49:08.158Z,7.40
2019-01-16T07:52:04.527Z,7.40
2019-01-16T07:55:12.730Z,7.40
2019-01-16T07:58:18.836Z,7.40
2019-01-16T08:01:24.569Z,7.50
2019-01-16T08:04:20.676Z,7.50
2019-01-16T08:07:23.051Z,7.50
2019-01-16T08:10:30.241Z,7.50
2019-01-16T08:13:20.583Z,7.50
2019-01-16T08:16:22.901Z,7.50
2019-01-16T08:19:16.905Z,7.50
2019-01-16T08:22:09.629Z,7.50
2019-01-16T08:25:02.881Z,7.50
2019-01-16T08:28:11.013Z,7.60
2019-01-16T08:31:01.706Z,7.60
2019-01-16T08:33:57.591Z,7.60
2019-01-16T08:36:53.727Z,7.60
2019-01-16T08:39:44.495Z,7.60
2019-01-16T08:42:40.103Z,7.60
2019-01-16T08:45:48.810Z,7.60
2019-01-16T08:48:57.553Z,7.70
2019-01-16T08:51:58.000Z,7.70
2019-01-16T08:54:51.369Z,7.70
2019-01-16T08:57:47.321Z,7.70
2019-01-16T09:00:37.751Z,7.70
2019-01-16T09:03:43.664Z,7.70
2019-01-16T09:06:49.837Z,7.80
2019-01-16T09:09:50.177Z,7.80
2019-01-16T09:12:56.815Z,7.80
2019-01-16T09:15:49.454Z,7.80
2019-01-16T09:18:47.952Z,7.80
2019-01-16T09:21:41.254Z,7.90
2019-01-16T09:24:37.228Z,7.90
2019-01-16T09:27:43.623Z,7.90
2019-01-16T09:30:36.960Z,8.00
2019-01-16T09:33:30.269Z,8.00
2019-01-16T09:36:23.575Z,8.00
2019-01-16T09:39:14.371Z,8.00
2019-01-16T09:42:04.931Z,8.00
2019-01-16T09:44:53.346Z,8.00
2019-01-16T09:47:50.382Z,8.00
2019-01-16T09:50:47.650Z,8.10
2019-01-16T09:53:32.644Z,8.10
2019-01-16T09:56:25.665Z,8.10
2019-01-16T09:59:16.007Z,8.10
2019-01-16T10:02:06.771Z,8.10
2019-01-16T10:05:05.747Z,8.10
2019-01-16T10:08:02.067Z,8.10
2019-01-16T10:10:58.444Z,8.20
2019-01-16T10:13:51.702Z,8.20
2019-01-16T10:16:44.904Z,8.20
2019-01-16T10:19:51.401Z,8.20
2019-01-16T10:22:47.926Z,8.20
2019-01-16T10:25:44.316Z,8.20
2019-01-16T10:28:34.455Z,8.20
2019-01-16T10:31:24.678Z,8.20
2019-01-16T10:34:17.758Z,8.20
2019-01-16T10:37:26.249Z,8.20
2019-01-16T10:40:25.636Z,8.20
2019-01-16T10:43:16.569Z,8.20
2019-01-16T10:46:18.461Z,8.20
2019-01-16T10:49:23.267Z,8.20
2019-01-16T10:52:13.411Z,8.20
2019-01-16T10:55:15.287Z,8.10
2019-01-16T10:58:08.076Z,8.10
2019-01-16T11:00:58.388Z,8.00
2019-01-16T11:03:57.347Z,8.00
2019-01-16T11:07:03.835Z,8.00
2019-01-16T11:10:05.819Z,7.90
2019-01-16T11:12:58.657Z,7.90
2019-01-16T11:16:04.418Z,7.90
2019-01-16T11:19:09.017Z,7.90
2019-01-16T11:22:08.216Z,7.90
2019-01-16T11:25:10.916Z,7.80
2019-01-16T11:28:18.572Z,7.80
2019-01-16T11:31:25.792Z,7.80
2019-01-16T11:34:16.430Z,7.70
2019-01-16T11:37:07.126Z,7.70
2019-01-16T11:40:04.807Z,7.70
2019-01-16T11:43:09.572Z,7.80
2019-01-16T11:45:59.821Z,7.80
2019-01-16T11:48:50.289Z,7.80
2019-01-16T11:51:40.185Z,7.80
2019-01-16T11:54:45.334Z,7.80
2019-01-16T11:57:35.659Z,7.80
2019-01-16T12:00:26.176Z,7.80
2019-01-16T12:03:31.774Z,7.80
2019-01-16T12:06:38.409Z,7.70
2019-01-16T12:09:44.565Z,7.70
2019-01-16T12:12:37.755Z,7.70
2019-01-16T12:15:28.657Z,7.70
2019-01-16T12:18:18.842Z,7.70
2019-01-16T12:21:26.566Z,7.70
2019-01-16T12:24:26.589Z,7.70
2019-01-16T12:27:17.165Z,7.80
2019-01-16T12:30:14.925Z,7.80
2019-01-16T12:33:14.687Z,7.80
2019-01-16T12:36:13.759Z,7.90
2019-01-16T12:39:04.056Z,7.90
2019-01-16T12:42:11.953Z,7.90
2019-01-16T12:45:18.007Z,7.90
2019-01-16T12:48:10.505Z,7.90
2019-01-16T12:51:09.222Z,7.90
2019-01-16T12:54:15.573Z,7.90
2019-01-16T12:57:20.743Z,7.90
2019-01-16T13:00:18.439Z,7.90
2019-01-16T13:03:24.291Z,7.80
2019-01-16T13:06:32.323Z,7.80
2019-01-16T13:09:29.579Z,7.70
2019-01-16T13:12:29.060Z,7.70
2019-01-16T13:15:22.919Z,7.70
2019-01-16T13:18:16.311Z,7.60
2019-01-16T13:21:23.255Z,7.50
2019-01-16T13:24:25.270Z,7.50
2019-01-16T13:27:21.638Z,7.40
2019-01-16T13:30:29.145Z,7.40
2019-01-16T13:33:22.121Z,7.30
2019-01-16T13:36:14.983Z,7.30
2019-01-16T13:39:12.705Z,7.20
2019-01-16T13:42:18.153Z,7.30
2019-01-16T13:45:22.850Z,7.20
2019-01-16T13:48:16.405Z,7.10
2019-01-16T13:51:12.016Z,7.10
2019-01-16T13:54:11.353Z,7.10
2019-01-16T13:57:01.383Z,7.10
2019-01-16T13:59:51.818Z,7.10
2019-01-16T14:02:41.834Z,7.10
2019-01-16T14:05:35.160Z,7.10
2019-01-16T14:08:37.189Z,7.10
2019-01-16T14:11:26.116Z,7.10
2019-01-16T14:14:25.059Z,7.10
2019-01-16T14:17:18.013Z,7.10
2019-01-16T14:20:13.034Z,7.20
2019-01-16T14:23:03.004Z,7.20
2019-01-16T14:26:08.528Z,7.20
2019-01-16T14:29:14.808Z,7.20
2019-01-16T14:32:16.649Z,7.20
2019-01-16T14:35:12.062Z,7.20
2019-01-16T14:38:20.303Z,7.20
2019-01-16T14:41:12.836Z,7.20
2019-01-16T14:44:21.437Z,7.20
2019-01-16T14:47:09.976Z,7.10
2019-01-16T14:50:00.787Z,7.10
2019-01-16T14:52:53.827Z,7.10
2019-01-16T14:55:56.559Z,7.10
2019-01-16T14:58:49.796Z,7.00
2019-01-16T15:01:57.618Z,7.00
2019-01-16T15:04:56.563Z,6.90
2019-01-16T15:07:58.571Z,6.90
2019-01-16T15:11:04.953Z,6.90
2019-01-16T15:14:04.315Z,6.80
2019-01-16T15:17:09.986Z,6.80
2019-01-16T15:20:12.449Z,6.70
2019-01-16T15:23:02.809Z,6.70
2019-01-16T15:26:04.527Z,6.70
2019-01-16T15:29:00.703Z,6.70
2019-01-16T15:32:08.723Z,6.70
2019-01-16T15:35:15.426Z,6.60
2019-01-16T15:38:22.303Z,6.50
2019-01-16T15:41:31.222Z,6.50
2019-01-16T15:44:24.610Z,6.40
2019-01-16T15:47:17.443Z,6.40
2019-01-16T15:50:11.846Z,6.40
2019-01-16T15:53:07.428Z,6.40
2019-01-16T15:56:03.516Z,6.30
2019-01-16T15:58:59.411Z,6.30
2019-01-16T16:01:56.018Z,6.30
2019-01-16T16:04:46.067Z,6.30
2019-01-16T16:07:36.473Z,6.30
2019-01-16T16:10:41.849Z,6.30
2019-01-16T16:13:37.907Z,6.30
2019-01-16T16:16:30.533Z,6.30
2019-01-16T16:19:29.484Z,6.30
2019-01-16T16:22:20.030Z,6.30
2019-01-16T16:25:08.648Z,6.30
2019-01-16T16:27:58.982Z,6.30
2019-01-16T16:30:50.257Z,6.30
2019-01-16T16:33:45.983Z,6.20
2019-01-16T16:36:34.588Z,6.20
2019-01-16T16:39:27.789Z,6.10
2019-01-16T16:42:18.758Z,6.10
2019-01-16T16:45:29.018Z,6.10
2019-01-16T16:48:19.173Z,6.10
2019-01-16T16:51:21.624Z,6.10
2019-01-16T16:54:14.188Z,6.10
2019-01-16T16:57:19.569Z,6.20
2019-01-16T17:00:13.942Z,6.10
2019-01-16T17:03:06.824Z,6.20
2019-01-16T17:05:57.579Z,6.10
2019-01-16T17:08:59.210Z,6.10
2019-01-16T17:11:53.807Z,6.10
2019-01-16T17:14:44.353Z,6.10
2019-01-16T17:17:34.703Z,6.10
2019-01-16T17:20:40.998Z,6.10
2019-01-16T17:23:35.496Z,6.10
2019-01-16T17:26:25.668Z,6.10
2019-01-16T17:29:30.835Z,6.10
2019-01-16T17:32:36.972Z,6.10
2019-01-16T17:35:29.808Z,6.10
2019-01-16T17:38:29.322Z,6.10
2019-01-16T17:41:24.980Z,6.10
2019-01-16T17:44:14.952Z,6.10
2019-01-16T17:47:21.779Z,6.10
2019-01-16T17:50:19.070Z,6.10
2019-01-16T17:53:09.922Z,6.10
2019-01-16T17:56:07.269Z,6.00
2019-01-16T17:58:57.839Z,6.00
2019-01-16T18:01:54.141Z,6.00
2019-01-16T18:05:00.570Z,6.00
2019-01-16T18:08:06.590Z,6.00
2019-01-16T18:10:57.063Z,5.90
2019-01-16T18:13:52.639Z,5.90
2019-01-16T18:16:59.010Z,5.90
2019-01-16T18:19:54.598Z,5.90
2019-01-16T18:22:45.221Z,5.90
2019-01-16T18:25:41.330Z,5.90
2019-01-16T18:28:32.164Z,5.90
2019-01-16T18:31:22.197Z,5.90
2019-01-16T18:34:21.119Z,5.90
2019-01-16T18:37:17.658Z,5.90
2019-01-16T18:40:12.620Z,5.90
2019-01-16T18:43:01.469Z,5.90
2019-01-16T18:46:07.614Z,5.90
2019-01-16T18:48:57.700Z,5.90
2019-01-16T18:52:02.271Z,5.90
2019-01-16T18:54:52.522Z,5.90
2019-01-16T18:57:51.912Z,5.90
2019-01-16T19:00:53.745Z,5.90
2019-01-16T19:03:47.175Z,5.90
2019-01-16T19:06:48.834Z,5.90
2019-01-16T19:09:41.487Z,5.90
2019-01-16T19:12:30.358Z,5.80
2019-01-16T19:15:20.993Z,5.80
2019-01-16T19:18:20.031Z,5.80
2019-01-16T19:21:10.159Z,5.70
2019-01-16T19:24:00.938Z,5.70
2019-01-16T19:26:56.623Z,5.60
2019-01-16T19:29:52.950Z,5.60
2019-01-16T19:32:46.719Z,5.60
2019-01-16T19:35:42.324Z,5.60
2019-01-16T19:38:48.201Z,5.60
2019-01-16T19:41:39.744Z,5.60
2019-01-16T19:44:42.031Z,5.60
2019-01-16T19:47:32.762Z,5.60
2019-01-16T19:50:25.579Z,5.50
2019-01-16T19:53:19.232Z,5.50
2019-01-16T19:56:09.843Z,5.40
2019-01-16T19:59:00.482Z,5.40
2019-01-16T20:02:08.535Z,5.40
2019-01-16T20:05:13.957Z,5.40
2019-01-16T20:08:20.080Z,5.40
2019-01-16T20:11:21.933Z,5.40
2019-01-16T20:14:12.016Z,5.40
2019-01-16T20:17:01.930Z,5.40
2019-01-16T20:19:52.103Z,5.40
2019-01-16T20:22:58.447Z,5.40
2019-01-16T20:25:55.524Z,5.40
2019-01-16T20:29:00.949Z,5.50
2019-01-16T20:31:51.532Z,5.40
2019-01-16T20:34:44.802Z,5.50
2019-01-16T20:37:35.016Z,5.40
2019-01-16T20:40:27.959Z,5.50
2019-01-16T20:43:28.004Z,5.40
2019-01-16T20:46:24.527Z,5.50
2019-01-16T20:49:31.197Z,5.40
2019-01-16T20:52:37.010Z,5.40
2019-01-16T20:55:30.044Z,5.40
2019-01-16T20:58:20.231Z,5.40
2019-01-16T21:01:26.039Z,5.40
2019-01-16T21:04:32.070Z,5.40
2019-01-16T21:07:22.568Z,5.40
2019-01-16T21:10:15.370Z,5.40
2019-01-16T21:13:10.687Z,5.40
2019-01-16T21:16:07.042Z,5.40
2019-01-16T21:19:06.142Z,5.40
2019-01-16T21:22:14.009Z,5.40
2019-01-16T21:25:02.227Z,5.40
2019-01-16T21:28:01.702Z,5.40
2019-01-16T21:31:01.198Z,5.40
2019-01-16T21:33:57.368Z,5.40
2019-01-16T21:36:48.005Z,5.30
2019-01-16T21:39:53.883Z,5.40
2019-01-16T21:42:46.935Z,5.30
2019-01-16T21:45:53.000Z,5.40
2019-01-16T21:49:01.057Z,5.30
2019-01-16T21:51:51.109Z,5.40
2019-01-16T21:54:41.620Z,5.30
2019-01-16T21:57:34.298Z,5.30
2019-01-16T22:00:25.026Z,5.30
2019-01-16T22:03:17.718Z,5.30
2019-01-16T22:06:24.574Z,5.30
2019-01-16T22:09:30.687Z,5.30
2019-01-16T22:12:21.336Z,5.20
2019-01-16T22:15:23.634Z,5.20
2019-01-16T22:18:16.943Z,5.20
2019-01-16T22:21:14.078Z,5.20
2019-01-16T22:24:02.963Z,5.20
2019-01-16T22:26:53.578Z,5.20
2019-01-16T22:29:52.891Z,5.20
2019-01-16T22:32:58.990Z,5.20
2019-01-16T22:35:55.432Z,5.10
2019-01-16T22:38:51.131Z,5.10
2019-01-16T22:41:41.487Z,5.10
2019-01-16T22:44:31.769Z,5.10
2019-01-16T22:47:30.151Z,5.10
2019-01-16T22:50:23.132Z,5.20
2019-01-16T22:53:28.214Z,5.10
2019-01-16T22:56:35.077Z,5.10
2019-01-16T22:59:25.246Z,5.10
2019-01-16T23:02:27.336Z,5.10
2019-01-16T23:05:29.647Z,5.10
2019-01-16T23:08:19.915Z,5.10
2019-01-16T23:11:11.599Z,5.10
2019-01-16T23:14:13.640Z,5.00
2019-01-16T23:17:13.035Z,5.10
2019-01-16T23:20:19.678Z,5.00
2019-01-16T23:23:21.677Z,5.10
2019-01-16T23:26:14.293Z,5.00
2019-01-16T23:29:16.299Z,5.10
2019-01-16T23:32:04.445Z,5.10
2019-01-16T23:34:55.398Z,5.00
2019-01-16T23:38:01.679Z,5.00
2019-01-16T23:40:51.753Z,5.00
2019-01-16T23:43:47.442Z,5.00
2019-01-16T23:46:40.807Z,5.00
2019-01-16T23:49:33.767Z,5.00
2019-01-16T23:52:24.158Z,5.10
2019-01-16T23:55:20.575Z,5.10
2019-01-16T23:58:28.780Z,5.00
